sensor_id;sensor_type;location;lat;lon;timestamp;temperature;humidity
47520;DHT22;33252;48.122;11.538;2024-01-15T00:02:17;-0.20;99.90
47520;DHT22;33252;48.122;11.538;2024-01-15T00:04:43;-0.10;99.90
47520;DHT22;33252;48.122;11.538;2024-01-15T00:07:09;0.00;99.90
47520;DHT22;33252;48.122;11.538;2024-01-15T00:09:35;0.00;99.90
47520;DHT22;33252;48.122;11.538;2024-01-15T00:12:01;0.00;99.90
47520;DHT22;33252;48.122;11.538;2024-01-15T00:14:27;0.00;99.90
47520;DHT22;33252;48.122;11.538;2024-01-15T00:16:53;0.00;99.90
47520;DHT22;33252;48.122;11.538;2024-01-15T00:19:20;0.00;99.90
47520;DHT22;33252;48.122;11.538;2024-01-15T00:21:46;0.10;99.90
47520;DHT22;33252;48.122;11.538;2024-01-15T00:24:12;-0.10;99.90
47520;DHT22;33252;48.122;11.538;2024-01-15T00:26:37;-0.10;99.90
47520;DHT22;33252;48.122;11.538;2024-01-15T00:29:03;-0.20;99.90
47520;DHT22;33252;48.122;11.538;2024-01-15T00:31:29;-0.20;99.90
47520;DHT22;33252;48.122;11.538;2024-01-15T00:33:58;-0.20;99.90
47520;DHT22;33252;48.122;11.538;2024-01-15T00:36:23;-0.20;99.90
47520;DHT22;33252;48.122;11.538;2024-01-15T00:38:49;-0.20;99.90
47520;DHT22;33252;48.122;11.538;2024-01-15T00:41:15;-0.30;99.90
47520;DHT22;33252;48.122;11.538;2024-01-15T00:43:40;-0.30;99.90
47520;DHT22;33252;48.122;11.538;2024-01-15T00:46:06;-0.20;99.90
47520;DHT22;33252;48.122;11.538;2024-01-15T00:48:32;-0.30;99.90
47520;DHT22;33252;48.122;11.538;2024-01-15T00:50:57;-0.30;99.90
47520;DHT22;33252;48.122;11.538;2024-01-15T00:53:23;-0.40;99.90
47520;DHT22;33252;48.122;11.538;2024-01-15T00:55:49;-0.40;99.90
47520;DHT22;33252;48.122;11.538;2024-01-15T00:58:14;-0.40;99.90
47520;DHT22;33252;48.122;11.538;2024-01-15T01:00:40;-0.40;99.90
47520;DHT22;33252;48.122;11.538;2024-01-15T01:03:06;-0.40;99.90
47520;DHT22;33252;48.122;11.538;2024-01-15T01:05:31;-0.50;99.90
47520;DHT22;33252;48.122;11.538;2024-01-15T01:07:57;-0.50;99.90
47520;DHT22;33252;48.122;11.538;2024-01-15T01:10:22;-0.50;99.90
47520;DHT22;33252;48.122;11.538;2024-01-15T01:12:48;-0.50;99.90
47520;DHT22;33252;48.122;11.538;2024-01-15T01:15:13;-0.60;99.90
47520;DHT22;33252;48.122;11.538;2024-01-15T01:17:39;-0.60;99.90
47520;DHT22;33252;48.122;11.538;2024-01-15T01:20:05;-0.80;99.90
47520;DHT22;33252;48.122;11.538;2024-01-15T01:22:33;-1.00;99.90
47520;DHT22;33252;48.122;11.538;2024-01-15T01:24:59;-1.10;99.90
47520;DHT22;33252;48.122;11.538;2024-01-15T01:27:24;-1.20;99.90
47520;DHT22;33252;48.122;11.538;2024-01-15T01:29:50;-1.20;99.90
47520;DHT22;33252;48.122;11.538;2024-01-15T01:32:16;-1.30;99.90
47520;DHT22;33252;48.122;11.538;2024-01-15T01:34:41;-1.30;99.90
47520;DHT22;33252;48.122;11.538;2024-01-15T01:37:10;-1.40;99.90
47520;DHT22;33252;48.122;11.538;2024-01-15T01:39:38;-1.40;99.90
47520;DHT22;33252;48.122;11.538;2024-01-15T01:42:04;-1.50;99.90
47520;DHT22;33252;48.122;11.538;2024-01-15T01:44:30;-1.50;99.90
47520;DHT22;33252;48.122;11.538;2024-01-15T01:46:57;-1.60;99.90
47520;DHT22;33252;48.122;11.538;2024-01-15T01:49:24;-1.60;99.90
47520;DHT22;33252;48.122;11.538;2024-01-15T01:51:50;-1.60;99.90
47520;DHT22;33252;48.122;11.538;2024-01-15T01:54:16;-1.60;99.90
47520;DHT22;33252;48.122;11.538;2024-01-15T01:56:42;-1.60;99.90
47520;DHT22;33252;48.122;11.538;2024-01-15T01:59:09;-1.60;99.90
47520;DHT22;33252;48.122;11.538;2024-01-15T02:01:36;-1.60;99.90
47520;DHT22;33252;48.122;11.538;2024-01-15T02:04:03;-1.60;99.90
47520;DHT22;33252;48.122;11.538;2024-01-15T02:06:29;-1.70;99.90
47520;DHT22;33252;48.122;11.538;2024-01-15T02:08:55;-1.70;99.90
47520;DHT22;33252;48.122;11.538;2024-01-15T02:11:21;-1.70;99.90
47520;DHT22;33252;48.122;11.538;2024-01-15T02:13:47;-1.70;99.90
47520;DHT22;33252;48.122;11.538;2024-01-15T02:16:12;-1.60;99.90
47520;DHT22;33252;48.122;11.538;2024-01-15T02:18:43;-1.70;99.90
47520;DHT22;33252;48.122;11.538;2024-01-15T02:21:09;-1.60;99.90
47520;DHT22;33252;48.122;11.538;2024-01-15T02:23:35;-1.70;99.90
47520;DHT22;33252;48.122;11.538;2024-01-15T02:26:01;-1.80;99.90
47520;DHT22;33252;48.122;11.538;2024-01-15T02:28:26;-1.70;99.90
47520;DHT22;33252;48.122;11.538;2024-01-15T02:30:52;-1.80;99.90
47520;DHT22;33252;48.122;11.538;2024-01-15T02:33:17;-1.80;99.90
47520;DHT22;33252;48.122;11.538;2024-01-15T02:35:43;-1.80;99.90
47520;DHT22;33252;48.122;11.538;2024-01-15T02:38:09;-1.80;99.90
47520;DHT22;33252;48.122;11.538;2024-01-15T02:40:35;-1.80;99.90
47520;DHT22;33252;48.122;11.538;2024-01-15T02:43:00;-1.80;99.90
47520;DHT22;33252;48.122;11.538;2024-01-15T02:45:26;-1.80;99.90
47520;DHT22;33252;48.122;11.538;2024-01-15T02:47:52;-1.80;99.90
47520;DHT22;33252;48.122;11.538;2024-01-15T02:50:17;-1.90;99.90
47520;DHT22;33252;48.122;11.538;2024-01-15T02:52:43;-1.80;99.90
47520;DHT22;33252;48.122;11.538;2024-01-15T02:55:09;-1.80;99.90
47520;DHT22;33252;48.122;11.538;2024-01-15T02:57:34;-1.80;99.90
47520;DHT22;33252;48.122;11.538;2024-01-15T03:00:00;-1.80;99.90
47520;DHT22;33252;48.122;11.538;2024-01-15T03:02:25;-1.80;99.90
47520;DHT22;33252;48.122;11.538;2024-01-15T03:04:51;-1.80;99.90
47520;DHT22;33252;48.122;11.538;2024-01-15T03:07:17;-1.80;99.90
47520;DHT22;33252;48.122;11.538;2024-01-15T03:09:43;-1.80;99.90
47520;DHT22;33252;48.122;11.538;2024-01-15T03:12:08;-1.80;99.90
47520;DHT22;33252;48.122;11.538;2024-01-15T03:14:35;-1.80;99.90
47520;DHT22;33252;48.122;11.538;2024-01-15T03:17:00;-1.80;99.90
47520;DHT22;33252;48.122;11.538;2024-01-15T03:19:26;-1.70;99.90
47520;DHT22;33252;48.122;11.538;2024-01-15T03:21:52;-1.70;99.90
47520;DHT22;33252;48.122;11.538;2024-01-15T03:24:17;-1.70;99.90
47520;DHT22;33252;48.122;11.538;2024-01-15T03:26:43;-1.70;99.90
47520;DHT22;33252;48.122;11.538;2024-01-15T03:29:08;-1.70;99.90
47520;DHT22;33252;48.122;11.538;2024-01-15T03:31:34;-1.70;99.90
47520;DHT22;33252;48.122;11.538;2024-01-15T03:34:00;-1.70;99.90
47520;DHT22;33252;48.122;11.538;2024-01-15T03:36:25;-1.70;99.90
47520;DHT22;33252;48.122;11.538;2024-01-15T03:38:51;-1.70;99.90
47520;DHT22;33252;48.122;11.538;2024-01-15T03:41:16;-1.70;99.90
47520;DHT22;33252;48.122;11.538;2024-01-15T03:43:42;-1.70;99.90
47520;DHT22;33252;48.122;11.538;2024-01-15T03:46:07;-1.80;99.90
47520;DHT22;33252;48.122;11.538;2024-01-15T03:48:33;-1.80;99.90
47520;DHT22;33252;48.122;11.538;2024-01-15T03:50:59;-1.80;99.90
47520;DHT22;33252;48.122;11.538;2024-01-15T03:53:24;-1.80;99.90
47520;DHT22;33252;48.122;11.538;2024-01-15T03:55:50;-1.80;99.90
47520;DHT22;33252;48.122;11.538;2024-01-15T03:58:15;-1.80;99.90
47520;DHT22;33252;48.122;11.538;2024-01-15T04:00:42;-1.80;99.90
47520;DHT22;33252;48.122;11.538;2024-01-15T04:03:08;-1.80;99.90
47520;DHT22;33252;48.122;11.538;2024-01-15T04:05:33;-1.80;99.90
47520;DHT22;33252;48.122;11.538;2024-01-15T04:07:59;-1.80;99.90
47520;DHT22;33252;48.122;11.538;2024-01-15T04:10:24;-1.80;99.90
47520;DHT22;33252;48.122;11.538;2024-01-15T04:12:50;-1.80;99.90
47520;DHT22;33252;48.122;11.538;2024-01-15T04:15:15;-1.80;99.90
47520;DHT22;33252;48.122;11.538;2024-01-15T04:17:41;-1.80;99.90
47520;DHT22;33252;48.122;11.538;2024-01-15T04:20:07;-1.70;99.90
47520;DHT22;33252;48.122;11.538;2024-01-15T04:22:34;-1.80;99.90
47520;DHT22;33252;48.122;11.538;2024-01-15T04:25:00;-1.80;99.90
47520;DHT22;33252;48.122;11.538;2024-01-15T04:27:26;-1.80;99.90
47520;DHT22;33252;48.122;11.538;2024-01-15T04:29:51;-1.70;99.90
47520;DHT22;33252;48.122;11.538;2024-01-15T04:32:17;-1.80;99.90
47520;DHT22;33252;48.122;11.538;2024-01-15T04:34:42;-1.80;99.90
47520;DHT22;33252;48.122;11.538;2024-01-15T04:37:08;-1.70;99.90
47520;DHT22;33252;48.122;11.538;2024-01-15T04:39:33;-1.70;99.90
47520;DHT22;33252;48.122;11.538;2024-01-15T04:41:59;-1.70;99.90
47520;DHT22;33252;48.122;11.538;2024-01-15T04:44:24;-1.70;99.90
47520;DHT22;33252;48.122;11.538;2024-01-15T04:46:50;-1.70;99.90
47520;DHT22;33252;48.122;11.538;2024-01-15T04:49:15;-1.70;99.90
47520;DHT22;33252;48.122;11.538;2024-01-15T04:51:41;-1.70;99.90
47520;DHT22;33252;48.122;11.538;2024-01-15T04:54:06;-1.70;99.90
47520;DHT22;33252;48.122;11.538;2024-01-15T04:56:32;-1.70;99.90
47520;DHT22;33252;48.122;11.538;2024-01-15T04:58:57;-1.70;99.90
47520;DHT22;33252;48.122;11.538;2024-01-15T05:01:23;-1.70;99.90
47520;DHT22;33252;48.122;11.538;2024-01-15T05:03:48;-1.70;99.90
47520;DHT22;33252;48.122;11.538;2024-01-15T05:06:14;-1.70;99.90
47520;DHT22;33252;48.122;11.538;2024-01-15T05:08:40;-1.70;99.90
47520;DHT22;33252;48.122;11.538;2024-01-15T05:11:06;-1.70;99.90
47520;DHT22;33252;48.122;11.538;2024-01-15T05:13:32;-1.60;99.90
47520;DHT22;33252;48.122;11.538;2024-01-15T05:15:57;-1.70;99.90
47520;DHT22;33252;48.122;11.538;2024-01-15T05:18:23;-1.70;99.90
47520;DHT22;33252;48.122;11.538;2024-01-15T05:20:48;-1.60;99.90
47520;DHT22;33252;48.122;11.538;2024-01-15T05:23:14;-1.60;99.90
47520;DHT22;33252;48.122;11.538;2024-01-15T05:25:39;-1.70;99.90
47520;DHT22;33252;48.122;11.538;2024-01-15T05:28:05;-1.60;99.90
47520;DHT22;33252;48.122;11.538;2024-01-15T05:30:31;-1.60;99.90
47520;DHT22;33252;48.122;11.538;2024-01-15T05:32:56;-1.60;99.90
47520;DHT22;33252;48.122;11.538;2024-01-15T05:35:23;-1.60;99.90
47520;DHT22;33252;48.122;11.538;2024-01-15T05:37:48;-1.60;99.90
47520;DHT22;33252;48.122;11.538;2024-01-15T05:40:14;-1.60;99.90
47520;DHT22;33252;48.122;11.538;2024-01-15T05:42:41;-1.70;99.90
47520;DHT22;33252;48.122;11.538;2024-01-15T05:45:07;-1.70;99.90
47520;DHT22;33252;48.122;11.538;2024-01-15T05:47:33;-1.70;99.90
47520;DHT22;33252;48.122;11.538;2024-01-15T05:50:00;-1.70;99.90
47520;DHT22;33252;48.122;11.538;2024-01-15T05:52:25;-1.70;99.90
47520;DHT22;33252;48.122;11.538;2024-01-15T05:54:51;-1.70;99.90
47520;DHT22;33252;48.122;11.538;2024-01-15T05:57:17;-1.70;99.90
47520;DHT22;33252;48.122;11.538;2024-01-15T05:59:44;-1.70;99.90
47520;DHT22;33252;48.122;11.538;2024-01-15T06:02:09;-1.70;99.90
47520;DHT22;33252;48.122;11.538;2024-01-15T06:04:35;-1.70;99.90
47520;DHT22;33252;48.122;11.538;2024-01-15T06:07:00;-1.70;99.90
47520;DHT22;33252;48.122;11.538;2024-01-15T06:09:26;-1.70;99.90
47520;DHT22;33252;48.122;11.538;2024-01-15T06:11:53;-1.70;99.90
47520;DHT22;33252;48.122;11.538;2024-01-15T06:14:18;-1.70;99.90
47520;DHT22;33252;48.122;11.538;2024-01-15T06:16:44;-1.80;99.90
47520;DHT22;33252;48.122;11.538;2024-01-15T06:19:09;-1.80;99.90
47520;DHT22;33252;48.122;11.538;2024-01-15T06:21:35;-1.80;99.90
47520;DHT22;33252;48.122;11.538;2024-01-15T06:24:01;-1.70;99.90
47520;DHT22;33252;48.122;11.538;2024-01-15T06:26:26;-1.80;99.90
47520;DHT22;33252;48.122;11.538;2024-01-15T06:28:52;-1.70;99.90
47520;DHT22;33252;48.122;11.538;2024-01-15T06:31:17;-1.70;99.90
47520;DHT22;33252;48.122;11.538;2024-01-15T06:33:43;-1.70;99.90
47520;DHT22;33252;48.122;11.538;2024-01-15T06:36:08;-1.70;99.90
47520;DHT22;33252;48.122;11.538;2024-01-15T06:38:34;-1.70;99.90
47520;DHT22;33252;48.122;11.538;2024-01-15T06:40:59;-1.70;99.90
47520;DHT22;33252;48.122;11.538;2024-01-15T06:43:25;-1.70;99.90
47520;DHT22;33252;48.122;11.538;2024-01-15T06:45:51;-1.70;99.90
47520;DHT22;33252;48.122;11.538;2024-01-15T06:48:16;-1.60;99.90
47520;DHT22;33252;48.122;11.538;2024-01-15T06:50:43;-1.60;99.90
47520;DHT22;33252;48.122;11.538;2024-01-15T06:53:08;-1.60;99.90
47520;DHT22;33252;48.122;11.538;2024-01-15T06:55:34;-1.60;99.90
47520;DHT22;33252;48.122;11.538;2024-01-15T06:57:59;-1.50;99.90
47520;DHT22;33252;48.122;11.538;2024-01-15T07:00:25;-1.50;99.90
47520;DHT22;33252;48.122;11.538;2024-01-15T07:02:52;-1.50;99.90
47520;DHT22;33252;48.122;11.538;2024-01-15T07:05:18;-1.40;99.90
47520;DHT22;33252;48.122;11.538;2024-01-15T07:07:43;-1.40;99.90
47520;DHT22;33252;48.122;11.538;2024-01-15T07:10:09;-1.40;99.90
47520;DHT22;33252;48.122;11.538;2024-01-15T07:12:35;-1.40;99.90
47520;DHT22;33252;48.122;11.538;2024-01-15T07:15:01;-1.40;99.90
47520;DHT22;33252;48.122;11.538;2024-01-15T07:17:27;-1.40;99.90
47520;DHT22;33252;48.122;11.538;2024-01-15T07:19:53;-1.40;99.90
47520;DHT22;33252;48.122;11.538;2024-01-15T07:22:18;-1.40;99.90
47520;DHT22;33252;48.122;11.538;2024-01-15T07:24:45;-1.40;99.90
47520;DHT22;33252;48.122;11.538;2024-01-15T07:27:10;-1.40;99.90
47520;DHT22;33252;48.122;11.538;2024-01-15T07:29:36;-1.30;99.90
47520;DHT22;33252;48.122;11.538;2024-01-15T07:32:03;-1.30;99.90
47520;DHT22;33252;48.122;11.538;2024-01-15T07:34:29;-1.30;99.90
47520;DHT22;33252;48.122;11.538;2024-01-15T07:36:54;-1.30;99.90
47520;DHT22;33252;48.122;11.538;2024-01-15T07:39:20;-1.30;99.90
47520;DHT22;33252;48.122;11.538;2024-01-15T07:41:47;-1.30;99.90
47520;DHT22;33252;48.122;11.538;2024-01-15T07:44:13;-1.40;99.90
47520;DHT22;33252;48.122;11.538;2024-01-15T07:46:39;-1.30;99.90
47520;DHT22;33252;48.122;11.538;2024-01-15T07:49:05;-1.30;99.90
47520;DHT22;33252;48.122;11.538;2024-01-15T07:51:30;-1.30;99.90
47520;DHT22;33252;48.122;11.538;2024-01-15T07:53:56;-1.30;99.90
47520;DHT22;33252;48.122;11.538;2024-01-15T07:56:22;-1.20;99.90
47520;DHT22;33252;48.122;11.538;2024-01-15T07:58:48;-1.20;99.90
47520;DHT22;33252;48.122;11.538;2024-01-15T08:01:13;-1.20;99.90
47520;DHT22;33252;48.122;11.538;2024-01-15T08:03:39;-1.20;99.90
47520;DHT22;33252;48.122;11.538;2024-01-15T08:06:05;-1.20;99.90
47520;DHT22;33252;48.122;11.538;2024-01-15T08:08:31;-1.20;99.90
47520;DHT22;33252;48.122;11.538;2024-01-15T08:10:56;-1.20;99.90
47520;DHT22;33252;48.122;11.538;2024-01-15T08:13:22;-1.10;99.90
47520;DHT22;33252;48.122;11.538;2024-01-15T08:15:47;-1.10;99.90
47520;DHT22;33252;48.122;11.538;2024-01-15T08:18:13;-1.20;99.90
47520;DHT22;33252;48.122;11.538;2024-01-15T08:20:39;-1.10;99.90
47520;DHT22;33252;48.122;11.538;2024-01-15T08:23:04;-1.10;99.90
47520;DHT22;33252;48.122;11.538;2024-01-15T08:25:30;-1.10;99.90
47520;DHT22;33252;48.122;11.538;2024-01-15T08:27:56;-1.10;99.90
47520;DHT22;33252;48.122;11.538;2024-01-15T08:30:23;-1.10;99.90
47520;DHT22;33252;48.122;11.538;2024-01-15T08:32:56;-1.10;99.90
47520;DHT22;33252;48.122;11.538;2024-01-15T08:35:21;-1.10;99.90
47520;DHT22;33252;48.122;11.538;2024-01-15T08:37:50;-1.10;99.90
47520;DHT22;33252;48.122;11.538;2024-01-15T08:40:16;-1.10;99.90
47520;DHT22;33252;48.122;11.538;2024-01-15T08:42:42;-1.00;99.90
47520;DHT22;33252;48.122;11.538;2024-01-15T08:45:08;-1.10;99.90
47520;DHT22;33252;48.122;11.538;2024-01-15T08:47:34;-1.10;99.90
47520;DHT22;33252;48.122;11.538;2024-01-15T08:50:00;-1.20;99.90
47520;DHT22;33252;48.122;11.538;2024-01-15T08:52:26;-1.10;99.90
47520;DHT22;33252;48.122;11.538;2024-01-15T08:54:52;-1.20;99.90
47520;DHT22;33252;48.122;11.538;2024-01-15T08:57:18;-1.10;99.90
47520;DHT22;33252;48.122;11.538;2024-01-15T08:59:44;-1.10;99.90
47520;DHT22;33252;48.122;11.538;2024-01-15T09:02:11;-1.10;99.90
47520;DHT22;33252;48.122;11.538;2024-01-15T09:04:37;-1.10;99.90
47520;DHT22;33252;48.122;11.538;2024-01-15T09:07:02;-1.10;99.90
47520;DHT22;33252;48.122;11.538;2024-01-15T09:09:28;-1.00;99.90
47520;DHT22;33252;48.122;11.538;2024-01-15T09:11:53;-1.10;99.90
47520;DHT22;33252;48.122;11.538;2024-01-15T09:14:19;-1.00;99.90
47520;DHT22;33252;48.122;11.538;2024-01-15T09:16:47;-0.90;99.90
47520;DHT22;33252;48.122;11.538;2024-01-15T09:19:13;-0.90;99.90
47520;DHT22;33252;48.122;11.538;2024-01-15T09:21:38;-0.90;99.90
47520;DHT22;33252;48.122;11.538;2024-01-15T09:24:04;-0.90;99.90
47520;DHT22;33252;48.122;11.538;2024-01-15T09:26:30;-0.90;99.90
47520;DHT22;33252;48.122;11.538;2024-01-15T09:28:55;-0.80;99.90
47520;DHT22;33252;48.122;11.538;2024-01-15T09:31:21;-0.80;99.90
47520;DHT22;33252;48.122;11.538;2024-01-15T09:33:47;-0.90;99.90
47520;DHT22;33252;48.122;11.538;2024-01-15T09:36:12;-0.80;99.90
47520;DHT22;33252;48.122;11.538;2024-01-15T09:38:40;-0.70;99.90
47520;DHT22;33252;48.122;11.538;2024-01-15T09:41:05;-0.70;99.90
47520;DHT22;33252;48.122;11.538;2024-01-15T09:43:31;-0.70;99.90
47520;DHT22;33252;48.122;11.538;2024-01-15T09:45:57;-0.80;99.90
47520;DHT22;33252;48.122;11.538;2024-01-15T09:48:22;-0.60;99.90
47520;DHT22;33252;48.122;11.538;2024-01-15T09:50:48;-0.70;99.90
47520;DHT22;33252;48.122;11.538;2024-01-15T09:53:15;-0.70;99.90
47520;DHT22;33252;48.122;11.538;2024-01-15T09:55:41;-0.60;99.90
47520;DHT22;33252;48.122;11.538;2024-01-15T09:58:07;-0.60;99.90
47520;DHT22;33252;48.122;11.538;2024-01-15T10:00:33;-0.60;99.90
47520;DHT22;33252;48.122;11.538;2024-01-15T10:03:03;-0.50;99.90
47520;DHT22;33252;48.122;11.538;2024-01-15T10:05:28;-0.40;99.90
47520;DHT22;33252;48.122;11.538;2024-01-15T10:07:56;-0.50;99.90
47520;DHT22;33252;48.122;11.538;2024-01-15T10:10:22;-0.50;99.90
47520;DHT22;33252;48.122;11.538;2024-01-15T10:12:48;-0.50;99.90
47520;DHT22;33252;48.122;11.538;2024-01-15T10:15:14;-0.50;99.90
47520;DHT22;33252;48.122;11.538;2024-01-15T10:17:40;-0.50;99.90
47520;DHT22;33252;48.122;11.538;2024-01-15T10:20:10;-0.50;99.90
47520;DHT22;33252;48.122;11.538;2024-01-15T10:22:38;-0.50;99.90
47520;DHT22;33252;48.122;11.538;2024-01-15T10:25:05;-0.40;99.90
47520;DHT22;33252;48.122;11.538;2024-01-15T10:27:30;-0.40;99.90
47520;DHT22;33252;48.122;11.538;2024-01-15T10:29:59;-0.50;99.90
47520;DHT22;33252;48.122;11.538;2024-01-15T10:32:26;-0.40;99.90
47520;DHT22;33252;48.122;11.538;2024-01-15T10:34:52;-0.40;99.90
47520;DHT22;33252;48.122;11.538;2024-01-15T10:37:18;-0.30;99.90
47520;DHT22;33252;48.122;11.538;2024-01-15T10:39:46;-0.40;99.90
47520;DHT22;33252;48.122;11.538;2024-01-15T10:42:12;-0.30;99.90
47520;DHT22;33252;48.122;11.538;2024-01-15T10:44:37;-0.40;99.90
47520;DHT22;33252;48.122;11.538;2024-01-15T10:47:04;-0.30;99.90
47520;DHT22;33252;48.122;11.538;2024-01-15T10:49:29;-0.30;99.90
47520;DHT22;33252;48.122;11.538;2024-01-15T10:51:56;-0.30;99.90
47520;DHT22;33252;48.122;11.538;2024-01-15T10:54:23;-0.20;99.90
47520;DHT22;33252;48.122;11.538;2024-01-15T10:56:50;-0.30;99.90
47520;DHT22;33252;48.122;11.538;2024-01-15T10:59:17;-0.40;99.90
47520;DHT22;33252;48.122;11.538;2024-01-15T11:01:45;-0.40;99.90
47520;DHT22;33252;48.122;11.538;2024-01-15T11:04:12;-0.30;99.90
47520;DHT22;33252;48.122;11.538;2024-01-15T11:06:45;-0.20;99.90
47520;DHT22;33252;48.122;11.538;2024-01-15T11:09:12;-0.30;99.90
47520;DHT22;33252;48.122;11.538;2024-01-15T11:11:43;-0.30;99.90
47520;DHT22;33252;48.122;11.538;2024-01-15T11:14:09;-0.10;99.90
47520;DHT22;33252;48.122;11.538;2024-01-15T11:17:01;0.10;99.90
47520;DHT22;33252;48.122;11.538;2024-01-15T11:19:48;0.00;99.90
47520;DHT22;33252;48.122;11.538;2024-01-15T11:25:13;0.00;99.90
47520;DHT22;33252;48.122;11.538;2024-01-15T11:27:41;0.00;99.90
47520;DHT22;33252;48.122;11.538;2024-01-15T11:30:11;0.00;99.90
47520;DHT22;33252;48.122;11.538;2024-01-15T11:32:37;0.10;99.90
47520;DHT22;33252;48.122;11.538;2024-01-15T11:35:07;0.10;99.90
47520;DHT22;33252;48.122;11.538;2024-01-15T11:40:35;0.10;99.90
47520;DHT22;33252;48.122;11.538;2024-01-15T11:43:03;0.10;99.90
47520;DHT22;33252;48.122;11.538;2024-01-15T11:45:30;0.00;99.90
47520;DHT22;33252;48.122;11.538;2024-01-15T11:50:35;-0.10;99.90
47520;DHT22;33252;48.122;11.538;2024-01-15T11:53:04;-0.10;99.90
47520;DHT22;33252;48.122;11.538;2024-01-15T11:55:37;-0.20;99.90
47520;DHT22;33252;48.122;11.538;2024-01-15T11:58:08;-0.20;99.90
47520;DHT22;33252;48.122;11.538;2024-01-15T12:00:34;-0.10;99.90
47520;DHT22;33252;48.122;11.538;2024-01-15T12:03:05;-0.10;99.90
47520;DHT22;33252;48.122;11.538;2024-01-15T12:05:30;-0.10;99.90
47520;DHT22;33252;48.122;11.538;2024-01-15T12:07:56;-0.10;99.90
47520;DHT22;33252;48.122;11.538;2024-01-15T12:10:22;-0.20;99.90
47520;DHT22;33252;48.122;11.538;2024-01-15T12:12:57;-0.20;99.90
47520;DHT22;33252;48.122;11.538;2024-01-15T12:15:24;-0.10;99.90
47520;DHT22;33252;48.122;11.538;2024-01-15T12:17:50;-0.10;99.90
47520;DHT22;33252;48.122;11.538;2024-01-15T12:20:17;-0.10;99.90
47520;DHT22;33252;48.122;11.538;2024-01-15T12:22:43;-0.10;99.90
47520;DHT22;33252;48.122;11.538;2024-01-15T12:25:10;-0.10;99.90
47520;DHT22;33252;48.122;11.538;2024-01-15T12:27:36;0.10;99.90
47520;DHT22;33252;48.122;11.538;2024-01-15T12:30:02;0.10;99.90
47520;DHT22;33252;48.122;11.538;2024-01-15T12:32:29;0.10;99.90
47520;DHT22;33252;48.122;11.538;2024-01-15T12:34:54;0.00;99.90
47520;DHT22;33252;48.122;11.538;2024-01-15T12:37:20;0.00;99.90
47520;DHT22;33252;48.122;11.538;2024-01-15T12:39:47;0.00;99.90
47520;DHT22;33252;48.122;11.538;2024-01-15T12:42:16;0.10;99.90
47520;DHT22;33252;48.122;11.538;2024-01-15T12:44:45;0.20;99.90
47520;DHT22;33252;48.122;11.538;2024-01-15T12:47:12;0.20;99.90
47520;DHT22;33252;48.122;11.538;2024-01-15T12:49:38;0.20;99.90
47520;DHT22;33252;48.122;11.538;2024-01-15T12:52:08;0.10;99.90
47520;DHT22;33252;48.122;11.538;2024-01-15T12:54:35;0.20;99.90
47520;DHT22;33252;48.122;11.538;2024-01-15T12:57:00;0.10;99.90
47520;DHT22;33252;48.122;11.538;2024-01-15T12:59:26;0.10;99.90
47520;DHT22;33252;48.122;11.538;2024-01-15T13:01:51;0.30;99.90
47520;DHT22;33252;48.122;11.538;2024-01-15T13:04:26;0.60;99.90
47520;DHT22;33252;48.122;11.538;2024-01-15T13:06:52;0.70;99.90
47520;DHT22;33252;48.122;11.538;2024-01-15T13:09:18;0.80;99.90
47520;DHT22;33252;48.122;11.538;2024-01-15T13:11:47;1.00;99.90
47520;DHT22;33252;48.122;11.538;2024-01-15T13:14:13;1.20;99.90
47520;DHT22;33252;48.122;11.538;2024-01-15T13:16:42;1.30;99.90
47520;DHT22;33252;48.122;11.538;2024-01-15T13:19:10;1.10;99.90
47520;DHT22;33252;48.122;11.538;2024-01-15T13:21:42;1.10;99.90
47520;DHT22;33252;48.122;11.538;2024-01-15T13:24:08;1.00;99.90
47520;DHT22;33252;48.122;11.538;2024-01-15T13:26:34;0.90;99.90
47520;DHT22;33252;48.122;11.538;2024-01-15T13:29:01;0.80;99.90
47520;DHT22;33252;48.122;11.538;2024-01-15T13:31:27;0.70;99.90
47520;DHT22;33252;48.122;11.538;2024-01-15T13:33:53;0.80;99.90
47520;DHT22;33252;48.122;11.538;2024-01-15T13:36:18;0.80;99.90
47520;DHT22;33252;48.122;11.538;2024-01-15T13:38:46;0.90;99.90
47520;DHT22;33252;48.122;11.538;2024-01-15T13:41:12;1.00;99.90
47520;DHT22;33252;48.122;11.538;2024-01-15T13:43:37;0.80;99.90
47520;DHT22;33252;48.122;11.538;2024-01-15T13:46:03;0.70;99.90
47520;DHT22;33252;48.122;11.538;2024-01-15T13:48:30;0.70;99.90
47520;DHT22;33252;48.122;11.538;2024-01-15T13:50:57;0.70;99.90
47520;DHT22;33252;48.122;11.538;2024-01-15T13:53:22;0.60;99.90
47520;DHT22;33252;48.122;11.538;2024-01-15T13:55:48;0.70;99.90
47520;DHT22;33252;48.122;11.538;2024-01-15T13:58:13;0.70;99.90
47520;DHT22;33252;48.122;11.538;2024-01-15T14:00:39;0.70;99.90
47520;DHT22;33252;48.122;11.538;2024-01-15T14:03:05;0.60;99.90
47520;DHT22;33252;48.122;11.538;2024-01-15T14:05:30;0.60;99.90
47520;DHT22;33252;48.122;11.538;2024-01-15T14:07:56;0.70;99.90
47520;DHT22;33252;48.122;11.538;2024-01-15T14:10:21;0.70;99.90
47520;DHT22;33252;48.122;11.538;2024-01-15T14:12:47;0.70;99.90
47520;DHT22;33252;48.122;11.538;2024-01-15T14:15:13;0.60;99.90
47520;DHT22;33252;48.122;11.538;2024-01-15T14:17:38;0.60;99.90
47520;DHT22;33252;48.122;11.538;2024-01-15T14:20:04;0.60;99.90
47520;DHT22;33252;48.122;11.538;2024-01-15T14:22:31;0.60;99.90
47520;DHT22;33252;48.122;11.538;2024-01-15T14:24:56;0.50;99.90
47520;DHT22;33252;48.122;11.538;2024-01-15T14:27:22;0.50;99.90
47520;DHT22;33252;48.122;11.538;2024-01-15T14:29:48;0.50;99.90
47520;DHT22;33252;48.122;11.538;2024-01-15T14:32:13;0.50;99.90
47520;DHT22;33252;48.122;11.538;2024-01-15T14:34:39;0.40;99.90
47520;DHT22;33252;48.122;11.538;2024-01-15T14:37:05;0.40;99.90
47520;DHT22;33252;48.122;11.538;2024-01-15T14:39:31;0.40;99.90
47520;DHT22;33252;48.122;11.538;2024-01-15T14:41:59;0.40;99.90
47520;DHT22;33252;48.122;11.538;2024-01-15T14:44:26;0.30;99.90
47520;DHT22;33252;48.122;11.538;2024-01-15T14:46:51;0.20;99.90
47520;DHT22;33252;48.122;11.538;2024-01-15T14:49:18;0.10;99.90
47520;DHT22;33252;48.122;11.538;2024-01-15T14:51:43;0.20;99.90
47520;DHT22;33252;48.122;11.538;2024-01-15T14:54:10;0.20;99.90
47520;DHT22;33252;48.122;11.538;2024-01-15T14:56:35;0.20;99.90
47520;DHT22;33252;48.122;11.538;2024-01-15T14:59:01;0.20;99.90
47520;DHT22;33252;48.122;11.538;2024-01-15T15:01:27;0.10;99.90
47520;DHT22;33252;48.122;11.538;2024-01-15T15:03:52;0.20;99.90
47520;DHT22;33252;48.122;11.538;2024-01-15T15:06:18;0.20;99.90
47520;DHT22;33252;48.122;11.538;2024-01-15T15:08:43;0.20;99.90
47520;DHT22;33252;48.122;11.538;2024-01-15T15:11:09;0.20;99.90
47520;DHT22;33252;48.122;11.538;2024-01-15T15:13:36;0.20;99.90
47520;DHT22;33252;48.122;11.538;2024-01-15T15:16:02;0.20;99.90
47520;DHT22;33252;48.122;11.538;2024-01-15T15:18:28;0.10;99.90
47520;DHT22;33252;48.122;11.538;2024-01-15T15:20:56;0.20;99.90
47520;DHT22;33252;48.122;11.538;2024-01-15T15:23:21;0.20;99.90